KBKW/BKW METAR and TAF weather

Enter ICAO airport designator
Station Type Date Time Source
KBKW METAR 2022/01/29 12:22 UTC NOAA

KBKW 291222Z AUTO 31009G16KT 3SM -SN BKN016 OVC038 M12/M15 A2996 RMK AO2 P0000 T11221150 TSNO


Station Type Date Time Source
KBKW Decoded METAR 2022/01/29 12:22 UTC NOAA

RALEIGH COUNTY MEM AIRPORT , WV, United States (KBKW) 37-48N 081-07W 764M
Jan 29, 2022 - 07:22 AM EST / 2022.01.29 1222 UTC
Wind: from the NW (310 degrees) at 10 MPH (9 KT) gusting to 18 MPH (16 KT):0
Visibility: 3 mile(s):0
Sky conditions: overcast
Weather: light snow
Precipitation last hour: A trace
Temperature: 10.0 F (-12.2 C)
Windchill: -4 F (-20 C):1
Dew Point: 5.0 F (-15.0 C)
Relative Humidity: 79%
Pressure (altimeter): 29.96 in. Hg (1014 hPa)
ob: KBKW 291222Z AUTO 31009G16KT 3SM -SN BKN016 OVC038 M12/M15 A2996 RMK AO2 P0000 T11221150 TSNO
cycle: 12

Station Type Date Time Source
KBKW TAF 2022/01/29 12:22 UTC NOAA

TAF KBKW 291120Z 2912/3012 32012G23KT P6SM BKN012
TEMPO 2912/2914 2SM -SN BKN007
FM291600 32012G18KT P6SM SCT017
FM292000 32011G21KT P6SM FEW150
FM300000 30007KT P6SM SCT250
FM300900 23005KT P6SM BKN070

Example: see airport list